createdAt,value
2023-05-10T00:01:14.334Z,5.38
2023-05-10T00:03:42.278Z,5.68
2023-05-10T00:06:09.782Z,6.00
2023-05-10T00:08:37.345Z,5.78
2023-05-10T00:11:05.022Z,5.95
2023-05-10T00:13:33.579Z,6.57
2023-05-10T00:16:02.454Z,5.50
2023-05-10T00:18:29.892Z,5.75
2023-05-10T00:20:57.322Z,6.72
2023-05-10T00:23:24.771Z,6.65
2023-05-10T00:25:52.333Z,6.47
2023-05-10T00:28:19.768Z,6.40
2023-05-10T00:30:47.219Z,5.63
2023-05-10T00:33:16.092Z,6.13
2023-05-10T00:35:43.647Z,6.50
2023-05-10T00:38:11.075Z,5.72
2023-05-10T00:40:38.776Z,5.85
2023-05-10T00:43:06.278Z,6.20
2023-05-10T00:45:34.886Z,6.10
2023-05-10T00:48:03.432Z,6.30
2023-05-10T00:50:33.103Z,6.47
2023-05-10T00:53:01.382Z,6.40
2023-05-10T00:55:29.175Z,6.18
2023-05-10T00:57:56.774Z,6.22
2023-05-10T01:00:24.298Z,5.80
2023-05-10T01:02:51.793Z,6.43
2023-05-10T01:05:19.518Z,5.97
2023-05-10T01:07:57.276Z,6.57
2023-05-10T01:10:24.910Z,5.90
2023-05-10T01:12:52.590Z,6.65
2023-05-10T01:15:20.170Z,6.50
2023-05-10T01:17:49.304Z,6.88
2023-05-10T01:20:17.859Z,5.97
2023-05-10T01:23:05.271Z,6.95
2023-05-10T01:26:12.528Z,7.05
2023-05-10T01:28:58.577Z,6.85
2023-05-10T01:31:35.683Z,6.75
2023-05-10T01:34:08.336Z,6.85
2023-05-10T01:36:41.352Z,6.65
2023-05-10T01:39:13.936Z,7.53
2023-05-10T01:41:47.274Z,7.32
2023-05-10T01:44:19.687Z,7.05
2023-05-10T01:46:52.112Z,6.85
2023-05-10T01:49:23.696Z,6.60
2023-05-10T01:51:55.675Z,7.45
2023-05-10T01:54:24.526Z,7.93
2023-05-10T01:56:55.000Z,7.80
2023-05-10T01:59:23.584Z,7.05
2023-05-10T02:01:52.066Z,7.38
2023-05-10T02:04:21.641Z,7.50
2023-05-10T02:06:49.914Z,7.25
2023-05-10T02:09:18.331Z,7.20
2023-05-10T02:11:46.300Z,7.95
2023-05-10T02:14:14.699Z,7.47
2023-05-10T02:16:42.574Z,7.40
2023-05-10T02:19:11.160Z,7.25
2023-05-10T02:21:41.213Z,7.30
2023-05-10T02:24:09.924Z,7.88
2023-05-10T02:26:38.261Z,6.60
2023-05-10T02:29:07.751Z,7.40
2023-05-10T02:31:35.584Z,7.65
2023-05-10T02:34:03.705Z,7.43
2023-05-10T02:36:32.922Z,7.35
2023-05-10T02:39:04.189Z,7.68
2023-05-10T02:41:33.058Z,7.57
2023-05-10T02:44:03.645Z,7.22
2023-05-10T02:46:31.228Z,7.53
2023-05-10T02:48:58.766Z,7.10
2023-05-10T02:51:27.672Z,8.50
2023-05-10T02:53:55.909Z,7.55
2023-05-10T02:56:27.275Z,7.95
2023-05-10T02:58:54.764Z,5.35
2023-05-10T03:01:22.406Z,7.32
2023-05-10T03:03:49.894Z,7.15
2023-05-10T03:06:17.504Z,7.60
2023-05-10T03:08:45.756Z,7.68
2023-05-10T03:11:32.906Z,7.93
2023-05-10T03:14:10.868Z,7.20
2023-05-10T03:16:44.992Z,7.82
2023-05-10T03:19:16.249Z,7.63
2023-05-10T03:21:46.027Z,7.73
2023-05-10T03:24:16.328Z,7.88
2023-05-10T03:26:45.776Z,7.15
2023-05-10T03:29:14.207Z,7.30
2023-05-10T03:31:41.784Z,6.88
2023-05-10T03:34:09.539Z,7.45
2023-05-10T03:36:37.160Z,6.68
2023-05-10T03:39:04.669Z,7.30
2023-05-10T03:41:32.137Z,7.43
2023-05-10T03:44:01.052Z,7.10
2023-05-10T03:46:28.519Z,6.90
2023-05-10T03:48:56.276Z,7.00
2023-05-10T03:51:23.925Z,7.47
2023-05-10T03:53:51.401Z,7.22
2023-05-10T03:56:18.944Z,7.32
2023-05-10T03:58:46.408Z,7.55
2023-05-10T04:01:15.260Z,6.80
2023-05-10T04:03:42.778Z,6.93
2023-05-10T04:06:12.755Z,6.80
2023-05-10T04:08:40.371Z,7.20
2023-05-10T04:11:08.671Z,6.35
2023-05-10T04:13:36.581Z,6.72
2023-05-10T04:16:04.604Z,6.35
2023-05-10T04:18:33.423Z,6.93
2023-05-10T04:21:00.891Z,6.18
2023-05-10T04:23:28.867Z,6.88
2023-05-10T04:26:01.594Z,6.65
2023-05-10T04:28:29.171Z,6.65
2023-05-10T04:31:03.451Z,6.60
2023-05-10T04:33:31.020Z,6.25
2023-05-10T04:35:59.912Z,6.25
2023-05-10T04:38:27.932Z,6.82
2023-05-10T04:40:55.540Z,6.32
2023-05-10T04:43:23.059Z,5.63
2023-05-10T04:45:51.235Z,6.40
2023-05-10T04:48:18.711Z,5.55
2023-05-10T04:50:46.159Z,5.70
2023-05-10T04:53:15.967Z,5.65
2023-05-10T04:55:43.568Z,5.95
2023-05-10T04:58:11.082Z,6.00
2023-05-10T05:00:38.613Z,5.63
2023-05-10T05:03:06.200Z,6.15
2023-05-10T05:05:33.726Z,5.85
2023-05-10T05:08:01.768Z,5.90
2023-05-10T05:10:30.919Z,5.80
2023-05-10T05:12:58.401Z,5.82
2023-05-10T05:15:25.971Z,5.10
2023-05-10T05:17:53.534Z,5.70
2023-05-10T05:20:21.110Z,5.32
2023-05-10T05:22:48.580Z,5.28
2023-05-10T05:25:16.106Z,5.35
2023-05-10T05:27:44.919Z,4.93
2023-05-10T05:30:13.535Z,4.90
2023-05-10T05:32:41.085Z,4.57
2023-05-10T05:35:09.348Z,4.63
2023-05-10T05:37:38.442Z,4.75
2023-05-10T05:40:07.192Z,4.68
2023-05-10T05:42:43.593Z,4.20
2023-05-10T05:45:14.282Z,4.88
2023-05-10T05:47:42.012Z,4.47
2023-05-10T05:50:10.362Z,4.32
2023-05-10T05:52:37.994Z,4.20
2023-05-10T05:55:06.210Z,3.88
2023-05-10T05:57:33.699Z,3.72
2023-05-10T06:00:01.252Z,4.35
2023-05-10T06:02:30.198Z,4.35
2023-05-10T06:04:57.782Z,3.97
2023-05-10T06:07:25.302Z,3.72
2023-05-10T06:09:52.796Z,4.78
2023-05-10T06:12:20.256Z,4.30
2023-05-10T06:14:47.705Z,4.00
2023-05-10T06:17:15.154Z,3.50
2023-05-10T06:19:43.992Z,4.50
2023-05-10T06:22:11.913Z,3.67
2023-05-10T06:24:39.428Z,3.85
2023-05-10T06:27:07.943Z,3.25
2023-05-10T06:29:35.413Z,3.85
2023-05-10T06:32:03.398Z,3.85
2023-05-10T06:34:30.865Z,3.78
2023-05-10T06:36:59.710Z,3.13
2023-05-10T06:39:27.162Z,3.50
2023-05-10T06:41:55.367Z,3.58
2023-05-10T06:44:23.029Z,3.35
2023-05-10T06:46:50.961Z,3.60
2023-05-10T06:49:18.855Z,3.33
2023-05-10T06:51:46.309Z,3.22
2023-05-10T06:54:15.111Z,3.30
2023-05-10T06:56:42.868Z,3.60
2023-05-10T06:59:10.337Z,2.85
2023-05-10T07:01:37.878Z,2.90
2023-05-10T07:04:05.360Z,3.55
2023-05-10T07:06:33.687Z,2.83
2023-05-10T07:09:01.623Z,3.15
2023-05-10T07:11:30.589Z,3.08
2023-05-10T07:13:58.056Z,3.38
2023-05-10T07:16:25.564Z,3.25
2023-05-10T07:18:54.055Z,3.05
2023-05-10T07:21:22.004Z,2.83
2023-05-10T07:23:49.563Z,2.80
2023-05-10T07:26:17.192Z,2.90
2023-05-10T07:28:45.964Z,3.40
2023-05-10T07:31:13.434Z,2.80
2023-05-10T07:33:40.997Z,3.35
2023-05-10T07:36:08.909Z,2.85
2023-05-10T07:38:38.939Z,3.15
2023-05-10T07:41:08.013Z,3.55
2023-05-10T07:43:35.481Z,3.13
2023-05-10T07:46:04.360Z,3.10
2023-05-10T07:48:32.274Z,3.40
2023-05-10T07:50:59.727Z,3.22
2023-05-10T07:53:28.182Z,2.75
2023-05-10T07:55:58.987Z,2.90
2023-05-10T07:58:26.678Z,3.00
2023-05-10T08:00:54.250Z,2.88
2023-05-10T08:03:23.053Z,2.95
2023-05-10T08:05:50.851Z,3.00
2023-05-10T08:08:18.540Z,3.13
2023-05-10T08:10:46.346Z,3.13
2023-05-10T08:13:13.796Z,3.15
2023-05-10T08:15:41.283Z,3.03
2023-05-10T08:18:08.814Z,2.95
2023-05-10T08:20:37.676Z,2.75
2023-05-10T08:23:05.217Z,3.08
2023-05-10T08:25:33.525Z,3.03
2023-05-10T08:28:01.029Z,3.00
2023-05-10T08:30:28.497Z,2.72
2023-05-10T08:32:56.086Z,2.60
2023-05-10T08:35:23.673Z,3.05
2023-05-10T08:37:52.641Z,2.65
2023-05-10T08:40:21.496Z,2.70
2023-05-10T08:42:53.906Z,2.65
2023-05-10T08:45:22.064Z,2.75
2023-05-10T08:47:49.605Z,3.40
2023-05-10T08:50:18.715Z,2.88
2023-05-10T08:52:48.781Z,2.75
2023-05-10T08:55:17.920Z,2.88
2023-05-10T08:57:45.783Z,2.95
2023-05-10T09:00:15.026Z,3.22
2023-05-10T09:02:44.054Z,3.20
2023-05-10T09:05:11.911Z,2.97
2023-05-10T09:07:39.456Z,2.97
2023-05-10T09:10:08.184Z,2.90
2023-05-10T09:12:37.210Z,3.00
2023-05-10T09:15:06.637Z,3.00
2023-05-10T09:17:34.162Z,3.15
2023-05-10T09:20:01.854Z,3.10
2023-05-10T09:22:29.452Z,2.80
2023-05-10T09:25:11.997Z,2.75
2023-05-10T09:27:41.938Z,2.92
2023-05-10T09:30:10.484Z,3.00
2023-05-10T09:32:38.884Z,2.67
2023-05-10T09:35:10.802Z,3.00
2023-05-10T09:37:38.353Z,3.10
2023-05-10T09:40:09.681Z,3.03
2023-05-10T09:42:37.165Z,2.85
2023-05-10T09:45:07.422Z,2.60
2023-05-10T09:47:35.754Z,3.22
2023-05-10T09:50:05.259Z,2.55
2023-05-10T09:52:33.168Z,2.33
2023-05-10T09:55:00.892Z,2.67
2023-05-10T09:57:28.359Z,2.83
2023-05-10T09:59:56.523Z,2.10
2023-05-10T10:02:31.045Z,2.92
2023-05-10T10:04:58.656Z,2.50
2023-05-10T10:07:27.243Z,2.72
2023-05-10T10:09:55.086Z,2.50
2023-05-10T10:12:22.600Z,2.67
2023-05-10T10:14:51.352Z,2.70
2023-05-10T10:17:20.981Z,2.58
2023-05-10T10:19:50.576Z,2.67
2023-05-10T10:22:19.057Z,2.50
2023-05-10T10:24:46.552Z,2.72
2023-05-10T10:27:28.938Z,2.40
2023-05-10T10:30:04.521Z,2.65
2023-05-10T10:32:38.124Z,2.30
2023-05-10T10:35:08.740Z,2.70
2023-05-10T10:37:46.411Z,2.30
2023-05-10T10:40:33.608Z,2.45
2023-05-10T10:43:23.677Z,2.70
2023-05-10T10:46:11.616Z,2.30
2023-05-10T10:48:39.162Z,2.42
2023-05-10T10:51:08.739Z,2.33
2023-05-10T10:53:41.203Z,2.70
2023-05-10T10:56:10.468Z,2.35
2023-05-10T10:58:39.221Z,2.45
2023-05-10T11:01:14.781Z,2.38
2023-05-10T11:03:42.792Z,2.47
2023-05-10T11:06:11.709Z,2.80
2023-05-10T11:08:44.777Z,2.33
2023-05-10T11:11:16.436Z,2.38
2023-05-10T11:16:13.461Z,2.50
2023-05-10T11:18:41.190Z,2.75
2023-05-10T11:21:12.410Z,2.33
2023-05-10T11:23:53.458Z,2.47
2023-05-10T11:26:24.069Z,2.60
2023-05-10T11:28:52.119Z,2.00
2023-05-10T11:31:20.833Z,2.50
2023-05-10T11:33:51.233Z,2.10
2023-05-10T11:36:21.072Z,2.90
2023-05-10T11:38:49.587Z,2.35
2023-05-10T11:41:19.431Z,2.03
2023-05-10T11:43:49.930Z,2.42
2023-05-10T11:46:21.379Z,2.67
2023-05-10T11:48:49.506Z,1.98
2023-05-10T11:51:17.041Z,2.65
2023-05-10T11:53:45.932Z,2.42
2023-05-10T11:56:13.570Z,2.63
2023-05-10T11:58:44.064Z,2.30
2023-05-10T12:01:11.983Z,2.30
2023-05-10T12:03:39.817Z,2.53
2023-05-10T12:06:08.830Z,2.40
2023-05-10T12:08:36.515Z,2.70
2023-05-10T12:11:11.266Z,2.30
2023-05-10T12:13:40.068Z,2.00
2023-05-10T12:16:15.128Z,2.30
2023-05-10T12:18:43.468Z,2.45
2023-05-10T12:21:12.430Z,2.20
2023-05-10T12:23:40.461Z,2.28
2023-05-10T12:26:11.281Z,2.20
2023-05-10T12:28:39.485Z,2.30
2023-05-10T12:31:08.038Z,2.03
2023-05-10T12:33:40.328Z,2.40
2023-05-10T12:36:08.400Z,2.30
2023-05-10T12:38:39.164Z,2.40
2023-05-10T12:41:09.639Z,2.30
2023-05-10T12:43:37.795Z,2.50
2023-05-10T12:46:09.561Z,2.38
2023-05-10T12:48:38.050Z,2.47
2023-05-10T12:51:09.611Z,2.15
2023-05-10T12:56:04.796Z,2.00
2023-05-10T12:58:35.873Z,2.22
2023-05-10T13:03:31.540Z,2.75
2023-05-10T13:05:59.027Z,2.60
2023-05-10T13:08:26.767Z,2.25
2023-05-10T13:10:54.336Z,2.38
2023-05-10T13:13:21.897Z,2.15
2023-05-10T13:15:50.680Z,2.80
2023-05-10T13:18:18.364Z,2.40
2023-05-10T13:20:46.242Z,2.22
2023-05-10T13:23:13.679Z,2.85
2023-05-10T13:25:41.560Z,2.13
2023-05-10T13:28:09.064Z,2.15
2023-05-10T13:30:36.543Z,2.45
2023-05-10T13:33:05.512Z,2.28
2023-05-10T13:35:33.013Z,2.08
2023-05-10T13:38:00.548Z,2.95
2023-05-10T13:40:28.888Z,2.60
2023-05-10T13:42:56.372Z,2.13
2023-05-10T13:45:23.953Z,2.70
2023-05-10T13:47:51.458Z,2.65
2023-05-10T13:50:20.484Z,2.70
2023-05-10T13:52:47.989Z,2.65
2023-05-10T13:55:15.684Z,2.90
2023-05-10T13:57:44.165Z,2.88
2023-05-10T14:00:12.600Z,3.03
2023-05-10T14:02:40.202Z,2.78
2023-05-10T14:05:08.302Z,2.47
2023-05-10T14:07:37.115Z,2.80
2023-05-10T14:10:04.995Z,2.58
2023-05-10T14:12:32.472Z,3.00
2023-05-10T14:15:00.072Z,3.28
2023-05-10T14:17:27.663Z,2.53
2023-05-10T14:19:55.421Z,2.85
2023-05-10T14:22:23.595Z,2.50
2023-05-10T14:24:52.463Z,2.83
2023-05-10T14:27:20.447Z,2.70
2023-05-10T14:29:47.994Z,2.72
2023-05-10T14:32:15.524Z,2.67
2023-05-10T14:34:43.025Z,2.55
2023-05-10T14:37:12.254Z,2.58
2023-05-10T14:39:40.246Z,2.45
2023-05-10T14:42:09.551Z,2.60
2023-05-10T14:44:36.967Z,2.72
2023-05-10T14:47:04.548Z,2.42
2023-05-10T14:49:32.645Z,2.80
2023-05-10T14:52:00.235Z,2.60
2023-05-10T14:54:28.360Z,3.05
2023-05-10T14:56:55.906Z,2.72
2023-05-10T14:59:24.825Z,2.80
2023-05-10T15:01:52.709Z,2.67
2023-05-10T15:04:20.579Z,2.50
2023-05-10T15:06:48.522Z,2.88
2023-05-10T15:09:16.681Z,2.70
2023-05-10T15:11:45.405Z,2.40
2023-05-10T15:14:13.102Z,2.80
2023-05-10T15:16:42.110Z,2.70
2023-05-10T15:19:09.735Z,2.60
2023-05-10T15:21:39.842Z,2.80
2023-05-10T15:24:07.643Z,2.90
2023-05-10T15:26:35.233Z,2.92
2023-05-10T15:29:02.740Z,2.65
2023-05-10T15:31:30.630Z,3.10
2023-05-10T15:34:00.664Z,2.80
2023-05-10T15:36:28.137Z,2.80
2023-05-10T15:38:56.863Z,2.70
2023-05-10T15:41:24.695Z,3.78
2023-05-10T15:43:52.364Z,4.32
2023-05-10T15:46:19.857Z,4.20
2023-05-10T15:48:47.399Z,4.25
2023-05-10T15:51:16.551Z,4.68
2023-05-10T15:53:56.553Z,4.55
2023-05-10T15:56:31.557Z,4.70
2023-05-10T15:58:59.011Z,4.35
2023-05-10T16:01:26.689Z,5.10
2023-05-10T16:03:54.290Z,4.50
2023-05-10T16:06:23.061Z,4.28
2023-05-10T16:08:52.365Z,4.90
2023-05-10T16:11:21.273Z,4.35
2023-05-10T16:13:49.009Z,4.57
2023-05-10T16:16:16.872Z,4.40
2023-05-10T16:18:44.614Z,4.20
2023-05-10T16:21:12.359Z,4.45
2023-05-10T16:23:41.284Z,4.70
2023-05-10T16:26:08.987Z,4.60
2023-05-10T16:28:36.565Z,4.60
2023-05-10T16:31:04.207Z,4.25
2023-05-10T16:33:31.818Z,4.45
2023-05-10T16:35:59.293Z,4.40
2023-05-10T16:38:27.029Z,3.97
2023-05-10T16:40:57.418Z,4.20
2023-05-10T16:43:26.122Z,4.60
2023-05-10T16:45:54.262Z,4.32
2023-05-10T16:48:21.774Z,4.63
2023-05-10T16:50:49.327Z,4.88
2023-05-10T16:53:17.091Z,4.28
2023-05-10T16:55:44.698Z,4.20
2023-05-10T16:58:13.588Z,4.20
2023-05-10T17:00:41.351Z,4.70
2023-05-10T17:03:08.990Z,4.88
2023-05-10T17:05:36.683Z,3.95
2023-05-10T17:08:04.122Z,4.10
2023-05-10T17:10:31.716Z,4.20
2023-05-10T17:12:59.483Z,4.35
2023-05-10T17:15:29.129Z,4.75
2023-05-10T17:17:57.614Z,3.90
2023-05-10T17:20:25.371Z,4.13
2023-05-10T17:22:52.865Z,4.40
2023-05-10T17:25:20.735Z,3.85
2023-05-10T17:27:48.217Z,4.35
2023-05-10T17:30:16.236Z,3.63
2023-05-10T17:32:45.341Z,4.00
2023-05-10T17:35:12.848Z,3.90
2023-05-10T17:37:41.621Z,4.40
2023-05-10T17:40:10.733Z,4.00
2023-05-10T17:42:38.365Z,3.65
2023-05-10T17:45:06.551Z,3.80
2023-05-10T17:47:34.344Z,3.70
2023-05-10T17:50:03.656Z,3.88
2023-05-10T17:52:33.365Z,4.18
2023-05-10T17:55:01.641Z,4.15
2023-05-10T17:57:29.320Z,4.28
2023-05-10T17:59:56.842Z,3.72
2023-05-10T18:02:24.559Z,4.00
2023-05-10T18:04:52.354Z,4.40
2023-05-10T18:07:23.796Z,3.75
2023-05-10T18:09:51.222Z,3.60
2023-05-10T18:12:18.801Z,3.20
2023-05-10T18:14:46.300Z,3.28
2023-05-10T18:17:13.969Z,3.45
2023-05-10T18:19:42.076Z,3.20
2023-05-10T18:22:10.861Z,3.58
2023-05-10T18:24:40.296Z,3.78
2023-05-10T18:27:08.535Z,3.60
2023-05-10T18:29:36.357Z,3.42
2023-05-10T18:32:04.038Z,3.50
2023-05-10T18:34:31.469Z,3.63
2023-05-10T18:36:59.084Z,3.97
2023-05-10T18:39:26.604Z,3.25
2023-05-10T18:41:55.703Z,3.28
2023-05-10T18:44:26.331Z,3.58
2023-05-10T18:46:54.318Z,3.55
2023-05-10T18:49:22.069Z,3.60
2023-05-10T18:51:49.745Z,3.85
2023-05-10T18:54:17.277Z,3.97
2023-05-10T18:56:45.393Z,3.78
2023-05-10T18:59:14.712Z,4.10
2023-05-10T19:01:42.548Z,4.05
2023-05-10T19:04:10.091Z,4.30
2023-05-10T19:06:37.781Z,3.90
2023-05-10T19:09:05.745Z,4.25
2023-05-10T19:11:34.526Z,4.47
2023-05-10T19:14:02.362Z,4.43
2023-05-10T19:16:31.456Z,4.38
2023-05-10T19:19:00.591Z,4.50
2023-05-10T19:21:28.458Z,4.13
2023-05-10T19:23:57.201Z,4.60
2023-05-10T19:26:24.929Z,4.28
2023-05-10T19:28:53.031Z,4.15
2023-05-10T19:31:21.436Z,4.40
2023-05-10T19:33:50.461Z,4.22
2023-05-10T19:36:17.958Z,4.78
2023-05-10T19:38:45.675Z,4.72
2023-05-10T19:41:13.321Z,4.60
2023-05-10T19:43:41.909Z,4.82
2023-05-10T19:46:10.002Z,5.28
2023-05-10T19:48:38.152Z,5.07
2023-05-10T19:51:10.133Z,4.53
2023-05-10T19:53:38.169Z,5.00
2023-05-10T19:56:06.342Z,4.75
2023-05-10T19:58:35.480Z,5.00
2023-05-10T20:01:03.964Z,5.05
2023-05-10T20:03:33.699Z,4.78
2023-05-10T20:06:01.856Z,4.70
2023-05-10T20:08:31.145Z,4.60
2023-05-10T20:11:00.589Z,4.90
2023-05-10T20:13:28.236Z,4.53
2023-05-10T20:15:57.164Z,5.18
2023-05-10T20:18:24.832Z,5.47
2023-05-10T20:20:56.296Z,5.72
2023-05-10T20:23:24.153Z,6.90
2023-05-10T20:25:53.620Z,6.00
2023-05-10T20:28:23.072Z,5.60
2023-05-10T20:30:53.160Z,6.00
2023-05-10T20:33:21.122Z,6.15
2023-05-10T20:35:49.513Z,5.68
2023-05-10T20:38:18.167Z,5.40
2023-05-10T20:40:46.681Z,5.45
2023-05-10T20:43:15.490Z,6.38
2023-05-10T20:45:43.441Z,5.97
2023-05-10T20:48:11.120Z,5.38
2023-05-10T20:50:38.628Z,5.38
2023-05-10T20:53:06.154Z,5.28
2023-05-10T20:55:33.763Z,5.40
2023-05-10T20:58:04.135Z,5.20
2023-05-10T21:00:33.728Z,4.95
2023-05-10T21:03:01.345Z,5.00
2023-05-10T21:05:28.927Z,5.28
2023-05-10T21:07:56.460Z,5.20
2023-05-10T21:10:25.071Z,5.10
2023-05-10T21:12:52.905Z,5.78
2023-05-10T21:15:20.446Z,4.90
2023-05-10T21:17:49.481Z,4.25
2023-05-10T21:20:17.590Z,5.18
2023-05-10T21:22:45.237Z,4.70
2023-05-10T21:25:12.807Z,4.80
2023-05-10T21:27:40.412Z,4.90
2023-05-10T21:30:10.469Z,5.72
2023-05-10T21:32:37.979Z,5.10
2023-05-10T21:35:08.249Z,4.93
2023-05-10T21:37:35.794Z,4.88
2023-05-10T21:40:04.666Z,4.95
2023-05-10T21:42:32.418Z,4.78
2023-05-10T21:44:59.893Z,5.07
2023-05-10T21:47:27.508Z,4.22
2023-05-10T21:49:55.101Z,5.50
2023-05-10T21:52:23.891Z,5.13
2023-05-10T21:54:51.356Z,4.63
2023-05-10T21:57:18.790Z,4.93
2023-05-10T21:59:46.292Z,5.00
2023-05-10T22:02:13.714Z,5.55
2023-05-10T22:04:41.211Z,5.50
2023-05-10T22:07:08.712Z,5.18
2023-05-10T22:09:37.459Z,5.38
2023-05-10T22:12:05.455Z,4.50
2023-05-10T22:14:32.919Z,5.72
2023-05-10T22:17:00.614Z,4.95
2023-05-10T22:19:28.095Z,5.07
2023-05-10T22:21:55.600Z,4.20
2023-05-10T22:24:23.131Z,4.60
2023-05-10T22:26:54.786Z,5.00
2023-05-10T22:29:22.548Z,4.65
2023-05-10T22:31:50.206Z,5.10
2023-05-10T22:34:18.816Z,5.45
2023-05-10T22:36:46.670Z,5.57
2023-05-10T22:39:14.115Z,5.28
2023-05-10T22:41:41.842Z,5.25
2023-05-10T22:44:10.652Z,5.40
2023-05-10T22:46:38.113Z,6.25
2023-05-10T22:49:06.274Z,5.55
2023-05-10T22:51:33.729Z,6.35
2023-05-10T22:54:01.259Z,6.93
2023-05-10T22:56:28.794Z,7.20
2023-05-10T22:58:57.614Z,6.70
2023-05-10T23:01:26.484Z,7.13
2023-05-10T23:03:54.018Z,7.13
2023-05-10T23:06:21.458Z,7.63
2023-05-10T23:08:49.298Z,7.93
2023-05-10T23:11:17.064Z,7.40
2023-05-10T23:13:44.624Z,7.20
2023-05-10T23:16:12.167Z,7.00
2023-05-10T23:18:41.185Z,8.18
2023-05-10T23:21:08.709Z,7.95
2023-05-10T23:23:36.229Z,7.82
2023-05-10T23:26:04.280Z,7.70
2023-05-10T23:28:31.749Z,7.57
2023-05-10T23:30:59.650Z,7.68
2023-05-10T23:33:27.291Z,6.47
2023-05-10T23:35:56.142Z,6.68
2023-05-10T23:38:23.656Z,7.30
2023-05-10T23:40:51.549Z,8.07
2023-05-10T23:43:19.881Z,6.88
2023-05-10T23:45:53.751Z,6.30
2023-05-10T23:48:21.435Z,8.65
2023-05-10T23:50:49.082Z,7.13
2023-05-10T23:53:17.893Z,7.30
2023-05-10T23:55:45.516Z,6.70
2023-05-10T23:58:12.999Z,7.10
